legislation_cosponsors
Data license: Public Domain (U.S. Government data) · Data source: Federal Register API & Regulations.gov API
27 rows where bill_id = "110-hr-5552" sorted by sponsorship_date descending
This data as json, CSV (advanced)
Suggested facets: party, state, sponsorship_date, sponsorship_date (date)
| Link | bill_id | bioguide_id | full_name | party | state | sponsorship_date ▲ | is_original_cosponsor |
|---|---|---|---|---|---|---|---|
| 110-hr-5552,S001171 | Border Security Accountability Act of 2008 110-hr-5552 | S001171 | Rep. Shuler, Heath [D-NC-11] | D | NC | 2008-07-30 | 0 |
| 110-hr-5552,S001173 | Border Security Accountability Act of 2008 110-hr-5552 | S001173 | Rep. Space, Zachary T. [D-OH-18] | D | OH | 2008-06-25 | 0 |
| 110-hr-5552,T000465 | Border Security Accountability Act of 2008 110-hr-5552 | T000465 | Rep. Tsongas, Niki [D-MA-5] | D | MA | 2008-04-23 | 0 |
| 110-hr-5552,B001259 | Border Security Accountability Act of 2008 110-hr-5552 | B001259 | Rep. Braley, Bruce L. [D-IA-1] | D | IA | 2008-04-23 | 0 |
| 110-hr-5552,G000548 | Border Security Accountability Act of 2008 110-hr-5552 | G000548 | Rep. Garrett, Scott [R-NJ-5] | R | NJ | 2008-04-17 | 0 |
| 110-hr-5552,K000365 | Border Security Accountability Act of 2008 110-hr-5552 | K000365 | Rep. Kagen, Steve [D-WI-8] | D | WI | 2008-04-17 | 0 |
| 110-hr-5552,K000366 | Border Security Accountability Act of 2008 110-hr-5552 | K000366 | Rep. Klein, Ron [D-FL-22] | D | FL | 2008-04-02 | 0 |
| 110-hr-5552,B000461 | Border Security Accountability Act of 2008 110-hr-5552 | B000461 | Rep. Bilbray, Brian P. [R-CA-50] | R | CA | 2008-03-06 | 1 |
| 110-hr-5552,A000361 | Border Security Accountability Act of 2008 110-hr-5552 | A000361 | Rep. Alexander, Rodney [R-LA-5] | R | LA | 2008-03-06 | 1 |
| 110-hr-5552,B000716 | Border Security Accountability Act of 2008 110-hr-5552 | B000716 | Rep. Boyd, Allen [D-FL-2] | D | FL | 2008-03-06 | 1 |
| 110-hr-5552,B001258 | Border Security Accountability Act of 2008 110-hr-5552 | B001258 | Rep. Boyda, Nancy E. [D-KS-2] | D | KS | 2008-03-06 | 1 |
| 110-hr-5552,C001047 | Border Security Accountability Act of 2008 110-hr-5552 | C001047 | Rep. Capito, Shelley Moore [R-WV-2] | R | WV | 2008-03-06 | 1 |
| 110-hr-5552,C000962 | Border Security Accountability Act of 2008 110-hr-5552 | C000962 | Rep. Cubin, Barbara [R-WY-At Large] | R | WY | 2008-03-06 | 1 |
| 110-hr-5552,D000607 | Border Security Accountability Act of 2008 110-hr-5552 | D000607 | Rep. Donnelly, Joe [D-IN-2] | D | IN | 2008-03-06 | 1 |
| 110-hr-5552,E000289 | Border Security Accountability Act of 2008 110-hr-5552 | E000289 | Rep. Ellsworth, Brad [D-IN-8] | D | IN | 2008-03-06 | 1 |
| 110-hr-5552,F000447 | Border Security Accountability Act of 2008 110-hr-5552 | F000447 | Rep. Feeney, Tom [R-FL-24] | R | FL | 2008-03-06 | 1 |
| 110-hr-5552,F000448 | Border Security Accountability Act of 2008 110-hr-5552 | F000448 | Rep. Franks, Trent [R-AZ-2] | R | AZ | 2008-03-06 | 1 |
| 110-hr-5552,H001039 | Border Security Accountability Act of 2008 110-hr-5552 | H001039 | Rep. Hall, John J. [D-NY-19] | D | NY | 2008-03-06 | 1 |
| 110-hr-5552,H001030 | Border Security Accountability Act of 2008 110-hr-5552 | H001030 | Rep. Hill, Baron P. [D-IN-9] | D | IN | 2008-03-06 | 1 |
| 110-hr-5552,H000981 | Border Security Accountability Act of 2008 110-hr-5552 | H000981 | Rep. Hunter, Duncan [R-CA-52] | R | CA | 2008-03-06 | 1 |
| 110-hr-5552,I000057 | Border Security Accountability Act of 2008 110-hr-5552 | I000057 | Rep. Israel, Steve [D-NY-2] | D | NY | 2008-03-06 | 1 |
| 110-hr-5552,K000113 | Border Security Accountability Act of 2008 110-hr-5552 | K000113 | Rep. Kennedy, Patrick J. [D-RI-1] | D | RI | 2008-03-06 | 1 |
| 110-hr-5552,L000043 | Border Security Accountability Act of 2008 110-hr-5552 | L000043 | Rep. Lampson, Nick [D-TX-22] | D | TX | 2008-03-06 | 1 |
| 110-hr-5552,M001158 | Border Security Accountability Act of 2008 110-hr-5552 | M001158 | Rep. Marchant, Kenny [R-TX-24] | R | TX | 2008-03-06 | 1 |
| 110-hr-5552,M001167 | Border Security Accountability Act of 2008 110-hr-5552 | M001167 | Rep. Mitchell, Harry E. [D-AZ-5] | D | AZ | 2008-03-06 | 1 |
| 110-hr-5552,M001140 | Border Security Accountability Act of 2008 110-hr-5552 | M001140 | Rep. Moore, Dennis [D-KS-3] | D | KS | 2008-03-06 | 1 |
| 110-hr-5552,T000458 | Border Security Accountability Act of 2008 110-hr-5552 | T000458 | Rep. Tancredo, Thomas G. [R-CO-6] | R | CO | 2008-03-06 | 1 |
Advanced export
JSON shape: default, array, newline-delimited, object
CREATE TABLE legislation_cosponsors (
bill_id TEXT NOT NULL REFERENCES legislation(bill_id),
bioguide_id TEXT NOT NULL,
full_name TEXT,
party TEXT,
state TEXT,
sponsorship_date TEXT,
is_original_cosponsor INTEGER,
PRIMARY KEY (bill_id, bioguide_id)
);
CREATE INDEX idx_lc_bioguide ON legislation_cosponsors(bioguide_id);
CREATE INDEX idx_lc_bill ON legislation_cosponsors(bill_id);
CREATE INDEX idx_lc_original ON legislation_cosponsors(is_original_cosponsor);